createdAt,value
2018-10-03T04:29:19.040Z,7.23
2018-10-03T04:31:47.562Z,5.63
2018-10-03T04:34:16.032Z,7.23
2018-10-03T04:36:44.601Z,6.53
2018-10-03T04:39:13.092Z,8.03
2018-10-03T04:41:41.625Z,7.47
2018-10-03T04:44:10.130Z,6.90
2018-10-03T04:46:38.669Z,10.23
2018-10-03T04:49:07.203Z,6.50
2018-10-03T04:51:35.722Z,7.40
2018-10-03T04:54:04.230Z,7.10
2018-10-03T04:56:32.766Z,8.73
2018-10-03T04:59:01.301Z,6.73
2018-10-03T05:01:29.851Z,6.90
2018-10-03T05:03:58.362Z,6.57
2018-10-03T05:06:26.864Z,5.87
2018-10-03T05:08:55.358Z,6.30
2018-10-03T05:11:23.923Z,7.67
2018-10-03T05:13:52.397Z,7.20
2018-10-03T05:16:20.924Z,7.90
2018-10-03T05:18:49.501Z,6.87
2018-10-03T05:21:18.031Z,6.53
2018-10-03T05:23:46.515Z,7.27
2018-10-03T05:26:15.058Z,7.50
2018-10-03T05:28:43.564Z,8.27
2018-10-03T05:31:12.097Z,7.77
2018-10-03T05:33:40.656Z,9.13
2018-10-03T05:36:09.208Z,7.93
2018-10-03T05:38:37.759Z,8.23
2018-10-03T05:41:06.364Z,9.23
2018-10-03T05:43:34.859Z,9.70
2018-10-03T05:46:03.355Z,7.37
2018-10-03T05:48:32.041Z,8.73
2018-10-03T05:51:00.468Z,8.13
2018-10-03T05:53:29.009Z,8.17
2018-10-03T05:55:57.599Z,7.20
2018-10-03T05:58:26.157Z,7.40
2018-10-03T06:00:54.654Z,9.03
2018-10-03T06:03:23.238Z,8.67
2018-10-03T06:05:51.764Z,7.57
2018-10-03T06:08:20.306Z,8.63
2018-10-03T06:10:48.873Z,7.77
2018-10-03T06:13:17.384Z,7.93
2018-10-03T06:15:46.094Z,7.13
2018-10-03T06:18:14.618Z,7.77
2018-10-03T06:20:43.113Z,6.67
2018-10-03T06:23:11.716Z,8.80
2018-10-03T06:25:40.233Z,8.10
2018-10-03T06:28:09.336Z,23.23
2018-10-03T06:30:37.995Z,8.43
2018-10-03T06:33:06.681Z,7.50
2018-10-03T06:35:35.351Z,7.83
2018-10-03T06:38:03.999Z,9.37
2018-10-03T06:40:32.502Z,6.60
2018-10-03T06:43:01.044Z,8.13
2018-10-03T06:45:29.564Z,8.53
2018-10-03T06:47:58.152Z,9.47
2018-10-03T06:50:27.197Z,8.50
2018-10-03T06:52:55.893Z,12.07
2018-10-03T06:55:24.401Z,13.30
2018-10-03T06:57:53.089Z,9.60
2018-10-03T07:00:21.694Z,12.20
2018-10-03T07:02:50.379Z,7.70
2018-10-03T07:05:18.875Z,8.73
2018-10-03T07:07:47.618Z,9.77
2018-10-03T07:10:16.143Z,7.63
2018-10-03T07:12:44.768Z,9.13
2018-10-03T07:15:13.374Z,11.27
2018-10-03T07:17:42.005Z,11.73
2018-10-03T07:20:10.569Z,9.27
2018-10-03T07:22:39.157Z,8.50
2018-10-03T07:25:15.740Z,7.47
2018-10-03T07:27:44.510Z,7.50
2018-10-03T07:30:13.356Z,8.03
2018-10-03T07:32:42.039Z,12.87
2018-10-03T07:35:10.502Z,9.83
2018-10-03T07:37:39.097Z,12.90
2018-10-03T07:40:07.653Z,8.30
2018-10-03T07:42:36.325Z,9.03
2018-10-03T07:45:05.372Z,8.73
2018-10-03T07:47:34.122Z,10.30
2018-10-03T07:50:02.695Z,12.43
2018-10-03T07:52:32.501Z,11.40
2018-10-03T07:55:01.122Z,9.73
2018-10-03T07:57:29.746Z,10.50
2018-10-03T07:59:58.236Z,11.07
2018-10-03T08:02:26.786Z,9.77
2018-10-03T08:04:56.556Z,11.40
2018-10-03T08:07:25.082Z,13.50
2018-10-03T08:09:55.510Z,13.80
2018-10-03T08:12:24.073Z,14.43
2018-10-03T08:14:52.612Z,9.43
2018-10-03T08:17:21.184Z,15.30
2018-10-03T08:19:49.736Z,14.37
2018-10-03T08:22:18.277Z,15.40
2018-10-03T08:24:46.790Z,15.50
2018-10-03T08:27:15.404Z,11.97
2018-10-03T08:29:44.033Z,31.20
2018-10-03T08:32:12.579Z,15.83
2018-10-03T08:34:41.091Z,21.60
2018-10-03T08:37:09.593Z,11.63
2018-10-03T08:39:38.149Z,12.60
2018-10-03T08:42:06.785Z,16.33
2018-10-03T08:44:35.317Z,11.30
2018-10-03T08:47:03.821Z,13.83
2018-10-03T08:49:32.335Z,16.87
2018-10-03T08:52:00.878Z,17.07
2018-10-03T08:54:29.435Z,11.87
2018-10-03T08:56:57.920Z,17.57
2018-10-03T08:59:27.003Z,16.07
2018-10-03T09:01:55.498Z,11.80
2018-10-03T09:04:24.161Z,12.40
2018-10-03T09:06:57.005Z,12.57
2018-10-03T09:09:25.585Z,16.47
2018-10-03T09:11:54.091Z,14.10
2018-10-03T09:14:22.616Z,13.97
2018-10-03T09:16:51.226Z,13.50
2018-10-03T09:19:19.796Z,16.97
2018-10-03T09:21:48.554Z,17.57
2018-10-03T09:24:18.555Z,15.90
2018-10-03T09:26:47.067Z,12.30
2018-10-03T09:29:15.621Z,20.23
2018-10-03T09:31:44.178Z,13.53
2018-10-03T09:34:12.734Z,17.97
2018-10-03T09:36:41.459Z,23.50
2018-10-03T09:39:11.518Z,17.00
2018-10-03T09:41:40.466Z,22.70
2018-10-03T09:44:10.280Z,17.13
2018-10-03T09:46:41.383Z,14.33
2018-10-03T09:49:09.928Z,16.03
2018-10-03T09:51:39.902Z,18.30
2018-10-03T09:54:10.632Z,16.03
2018-10-03T09:56:40.107Z,20.30
2018-10-03T09:59:09.282Z,22.27
2018-10-03T10:01:37.864Z,16.83
2018-10-03T10:04:06.929Z,16.33
2018-10-03T10:06:36.031Z,14.30
2018-10-03T10:09:06.797Z,14.87
2018-10-03T10:11:36.623Z,20.30
2018-10-03T10:14:05.485Z,17.93
2018-10-03T10:16:33.981Z,17.10
2018-10-03T10:19:03.623Z,18.50
2018-10-03T10:24:13.874Z,17.33
2018-10-03T10:26:47.453Z,19.33
2018-10-03T10:29:16.802Z,17.60
2018-10-03T10:31:46.044Z,14.50
2018-10-03T10:34:15.016Z,13.73
2018-10-03T10:36:44.775Z,15.37
2018-10-03T10:39:13.661Z,14.97
2018-10-03T10:41:42.205Z,18.33
2018-10-03T10:44:11.336Z,17.07
2018-10-03T10:46:40.638Z,18.83
2018-10-03T10:49:09.497Z,14.03
2018-10-03T10:51:38.611Z,17.87
2018-10-03T10:54:07.523Z,24.77
2018-10-03T10:56:36.032Z,26.97
2018-10-03T10:59:05.038Z,23.77
2018-10-03T11:01:33.849Z,27.90
2018-10-03T11:04:02.662Z,17.87
2018-10-03T11:06:33.100Z,23.83
2018-10-03T11:09:02.067Z,22.40
2018-10-03T11:11:32.138Z,25.07
2018-10-03T11:14:00.693Z,15.23
2018-10-03T11:16:30.527Z,17.40
2018-10-03T11:19:00.174Z,19.17
2018-10-03T11:21:29.477Z,15.70
2018-10-03T11:23:59.911Z,16.10
2018-10-03T11:26:28.806Z,18.00
2018-10-03T11:28:57.471Z,14.53
2018-10-03T11:31:26.027Z,18.43
2018-10-03T11:33:54.745Z,18.57
2018-10-03T11:36:23.383Z,14.57
2018-10-03T11:38:51.896Z,18.97
2018-10-03T11:41:20.751Z,16.37
2018-10-03T11:43:49.830Z,19.53
2018-10-03T11:46:19.627Z,12.43
2018-10-03T11:48:48.159Z,16.47
2018-10-03T11:51:16.716Z,10.93
2018-10-03T11:53:45.306Z,13.97
2018-10-03T11:56:14.242Z,19.43
2018-10-03T11:58:43.118Z,12.07
2018-10-03T12:01:12.000Z,15.03
2018-10-03T12:03:41.659Z,13.67
2018-10-03T12:06:10.501Z,16.37
2018-10-03T12:08:39.230Z,17.80
2018-10-03T12:11:08.077Z,18.33
2018-10-03T12:13:36.943Z,20.03
2018-10-03T12:16:05.935Z,17.23
2018-10-03T12:18:34.927Z,23.83
2018-10-03T12:21:03.908Z,19.77
2018-10-03T12:23:32.399Z,15.93
2018-10-03T12:26:01.202Z,20.00
2018-10-03T12:28:29.967Z,18.70
2018-10-03T12:30:58.935Z,17.53
2018-10-03T12:33:27.734Z,13.13
2018-10-03T12:35:56.476Z,13.07
2018-10-03T12:38:25.334Z,17.20
2018-10-03T12:40:54.038Z,14.90
2018-10-03T12:43:26.001Z,18.87
2018-10-03T12:45:54.985Z,17.07
2018-10-03T12:48:24.223Z,11.90
2018-10-03T12:50:52.790Z,13.43
2018-10-03T12:53:22.339Z,16.40
2018-10-03T12:55:54.511Z,13.43
2018-10-03T12:58:25.486Z,14.47
2018-10-03T13:00:54.065Z,15.17
2018-10-03T13:03:23.601Z,15.80
2018-10-03T13:05:53.883Z,17.97
2018-10-03T13:08:22.538Z,14.33
2018-10-03T13:10:51.174Z,16.80
2018-10-03T13:13:21.258Z,13.90
2018-10-03T13:15:49.858Z,13.10
2018-10-03T13:18:19.499Z,15.70
2018-10-03T13:20:48.089Z,16.07
2018-10-03T13:23:16.787Z,18.43
2018-10-03T13:25:46.184Z,17.30
2018-10-03T13:28:14.990Z,12.97
2018-10-03T13:30:44.355Z,13.27
2018-10-03T13:33:12.821Z,20.40
2018-10-03T13:35:41.921Z,15.67
2018-10-03T13:38:10.445Z,19.53
2018-10-03T13:40:39.636Z,18.27
2018-10-03T13:43:09.317Z,13.40
2018-10-03T13:45:38.353Z,16.07
2018-10-03T13:48:06.941Z,16.17
2018-10-03T13:50:35.460Z,12.40
2018-10-03T13:53:04.913Z,17.50
2018-10-03T13:55:34.380Z,12.73
2018-10-03T13:58:03.614Z,19.43
2018-10-03T14:00:33.431Z,13.23
2018-10-03T14:03:02.019Z,11.50
2018-10-03T14:05:30.568Z,12.60
2018-10-03T14:07:59.531Z,14.93
2018-10-03T14:10:28.805Z,10.68
2018-10-03T14:12:57.964Z,13.90
2018-10-03T14:15:26.539Z,14.68
2018-10-03T14:17:55.680Z,11.73
2018-10-03T14:20:24.411Z,12.33
2018-10-03T14:22:53.014Z,13.78
2018-10-03T14:25:21.577Z,15.63
2018-10-03T14:27:50.324Z,12.88
2018-10-03T14:30:18.888Z,12.33
2018-10-03T14:32:47.678Z,13.78
2018-10-03T14:35:17.949Z,16.60
2018-10-03T14:37:49.128Z,18.20
2018-10-03T14:40:20.031Z,11.10
2018-10-03T14:42:50.652Z,13.93
2018-10-03T14:45:21.172Z,13.98
2018-10-03T14:47:49.830Z,13.18
2018-10-03T14:50:18.463Z,11.88
2018-10-03T14:52:48.309Z,12.70
2018-10-03T14:55:17.802Z,11.33
2018-10-03T14:57:46.637Z,9.48
2018-10-03T15:00:15.183Z,14.63
2018-10-03T15:02:45.944Z,12.45
2018-10-03T15:05:14.831Z,11.05
2018-10-03T15:07:43.799Z,10.60
2018-10-03T15:10:12.567Z,12.65
2018-10-03T15:12:41.445Z,14.15
2018-10-03T15:15:11.337Z,15.53
2018-10-03T15:17:40.245Z,14.73
2018-10-03T15:20:08.797Z,13.03
2018-10-03T15:22:37.831Z,18.57
2018-10-03T15:25:06.956Z,15.00
2018-10-03T15:27:36.775Z,14.27
2018-10-03T15:30:05.576Z,16.90
2018-10-03T15:32:34.237Z,17.57
2018-10-03T15:35:04.758Z,12.37
2018-10-03T15:37:36.259Z,8.97
2018-10-03T15:40:06.318Z,16.53
2018-10-03T15:42:34.900Z,16.90
2018-10-03T15:45:03.538Z,13.73
2018-10-03T15:47:32.240Z,18.50
2018-10-03T15:50:01.026Z,12.73
2018-10-03T15:52:29.757Z,14.23
2018-10-03T15:54:58.599Z,11.63
2018-10-03T15:57:30.092Z,10.77
2018-10-03T15:59:59.596Z,12.10
2018-10-03T16:02:30.607Z,11.53
2018-10-03T16:05:00.487Z,10.77
2018-10-03T16:07:37.353Z,10.93
2018-10-03T16:10:08.590Z,11.93
2018-10-03T16:12:41.045Z,10.97
2018-10-03T16:15:11.250Z,13.37
2018-10-03T16:17:45.162Z,15.80
2018-10-03T16:20:15.631Z,14.23
2018-10-03T16:22:45.573Z,10.80
2018-10-03T16:25:18.435Z,16.43
2018-10-03T16:27:47.790Z,13.83
2018-10-03T16:30:17.713Z,14.77
2018-10-03T16:32:46.660Z,12.07
2018-10-03T16:35:15.213Z,13.87
2018-10-03T16:37:43.778Z,14.90
2018-10-03T16:40:12.277Z,9.70
2018-10-03T16:42:40.781Z,14.13
2018-10-03T16:45:09.280Z,9.10
2018-10-03T16:47:37.957Z,12.77
2018-10-03T16:50:06.612Z,11.40
2018-10-03T16:52:35.970Z,14.00
2018-10-03T16:55:04.917Z,12.80
2018-10-03T16:57:36.348Z,11.83
2018-10-03T17:00:06.437Z,13.20
2018-10-03T17:02:37.209Z,13.67
2018-10-03T17:05:08.218Z,13.93
2018-10-03T17:07:36.750Z,13.50
2018-10-03T17:10:06.824Z,13.50
2018-10-03T17:12:35.663Z,13.17
2018-10-03T17:15:05.161Z,12.90
2018-10-03T17:17:34.363Z,12.63
2018-10-03T17:20:03.285Z,13.00
2018-10-03T17:22:33.056Z,13.83
2018-10-03T17:25:02.754Z,14.23
2018-10-03T17:27:31.795Z,10.30
2018-10-03T17:30:01.981Z,12.43
2018-10-03T17:32:30.766Z,13.90
2018-10-03T17:35:00.913Z,12.20
2018-10-03T17:37:29.795Z,12.80
2018-10-03T17:39:59.361Z,16.50
2018-10-03T17:42:28.868Z,16.13
2018-10-03T17:44:57.979Z,13.60
2018-10-03T17:47:26.785Z,13.77
2018-10-03T17:49:55.710Z,10.60
2018-10-03T17:52:25.971Z,11.53
2018-10-03T17:54:54.934Z,15.70
2018-10-03T17:57:24.443Z,11.57
2018-10-03T17:59:53.086Z,9.90
2018-10-03T18:02:22.015Z,12.03
2018-10-03T18:04:51.050Z,15.57
2018-10-03T18:07:20.278Z,13.77
2018-10-03T18:09:55.499Z,13.87
2018-10-03T18:12:28.702Z,11.40
2018-10-03T18:17:37.296Z,21.90
2018-10-03T18:20:07.290Z,14.70
2018-10-03T18:22:37.834Z,16.13
2018-10-03T18:25:09.405Z,23.47
2018-10-03T18:27:41.589Z,22.63
2018-10-03T18:30:10.343Z,22.97
2018-10-03T18:32:39.444Z,19.03
2018-10-03T18:35:12.058Z,18.23
2018-10-03T18:37:45.949Z,14.43
2018-10-03T18:40:16.749Z,14.70
2018-10-03T18:42:49.116Z,13.20
2018-10-03T18:45:21.038Z,14.80
2018-10-03T18:47:49.688Z,18.57
2018-10-03T18:50:18.250Z,13.57
2018-10-03T18:52:46.779Z,14.73
2018-10-03T18:55:15.294Z,19.20
2018-10-03T18:57:43.942Z,19.87
2018-10-03T19:00:12.483Z,17.63
2018-10-03T19:02:41.180Z,15.97
2018-10-03T19:05:09.750Z,27.77
2018-10-03T19:07:38.301Z,26.07
2018-10-03T19:10:07.084Z,24.40
2018-10-03T19:12:35.786Z,19.50
2018-10-03T19:15:05.876Z,17.67
2018-10-03T19:17:35.158Z,12.30
2018-10-03T19:20:04.919Z,14.30
2018-10-03T19:22:33.991Z,12.37
2018-10-03T19:25:02.832Z,17.83
2018-10-03T19:27:31.442Z,13.27
2018-10-03T19:30:01.277Z,15.10
2018-10-03T19:32:31.917Z,17.70
2018-10-03T19:35:02.722Z,17.00
2018-10-03T19:37:36.040Z,13.33
2018-10-03T19:40:08.200Z,17.83
2018-10-03T19:42:38.189Z,13.87
2018-10-03T19:45:07.236Z,16.30
2018-10-03T19:47:36.449Z,17.57
2018-10-03T19:50:14.137Z,15.77
2018-10-03T19:52:46.488Z,17.07
2018-10-03T19:55:20.896Z,17.37
2018-10-03T19:57:50.267Z,10.03
2018-10-03T20:00:21.300Z,13.73
2018-10-03T20:02:57.478Z,10.77
2018-10-03T20:05:31.577Z,14.17
2018-10-03T20:08:03.338Z,15.67
2018-10-03T20:10:34.501Z,15.43
2018-10-03T20:15:40.882Z,14.07
2018-10-03T20:18:13.624Z,18.47
2018-10-03T20:20:48.997Z,12.80
2018-10-03T20:23:17.901Z,14.37
2018-10-03T20:25:46.870Z,17.40
2018-10-03T20:28:18.520Z,17.07
2018-10-03T20:30:47.544Z,18.23
2018-10-03T20:33:16.542Z,15.27
2018-10-03T20:35:45.101Z,21.20
2018-10-03T20:38:13.861Z,16.23
2018-10-03T20:40:42.371Z,17.17
2018-10-03T20:43:11.543Z,17.20
2018-10-03T20:45:40.074Z,19.10
2018-10-03T20:48:11.186Z,15.07
2018-10-03T20:50:41.946Z,13.47
2018-10-03T20:53:11.184Z,12.70
2018-10-03T20:55:43.341Z,17.77
2018-10-03T20:58:12.496Z,12.57
2018-10-03T21:00:41.510Z,12.07
2018-10-03T21:03:11.237Z,14.87
2018-10-03T21:05:41.192Z,13.33
2018-10-03T21:08:10.319Z,16.70
2018-10-03T21:10:39.220Z,17.03
2018-10-03T21:13:08.436Z,15.10
2018-10-03T21:15:37.082Z,11.03
2018-10-03T21:18:05.880Z,18.13
2018-10-03T21:20:34.924Z,17.87
2018-10-03T21:23:03.566Z,20.10
2018-10-03T21:25:33.539Z,15.27
2018-10-03T21:28:04.137Z,16.60
2018-10-03T21:30:32.692Z,17.23
2018-10-03T21:33:01.490Z,13.53
2018-10-03T21:35:30.500Z,12.30
2018-10-03T21:37:59.049Z,17.70
2018-10-03T21:40:28.101Z,14.77
2018-10-03T21:42:57.025Z,13.57
2018-10-03T21:45:26.462Z,13.57
2018-10-03T21:47:55.303Z,13.50
2018-10-03T21:50:23.866Z,16.83
2018-10-03T21:52:52.401Z,11.37
2018-10-03T21:55:20.920Z,16.23
